ハノーファー の空港の天気 - METARとTAF

ハノーファー空港 ( EDDV / HAJ ) - ドイツ ハノーファー
飛行場実況気象(Metar)
観測時間10/18 11:20 CEST (10/18 09:20 UTC)
風向・風速南 4m/s
視程10km以上
天気現象
少しの雲 雲底高度 460m
気温16℃
湿度77%
気圧1007hPa
METAREDDV 180920Z 18007KT 130V220 9999 FEW015 16/12 Q1007 NOSIG
過去の天気等 Google飛行場航空写真 Wunderground天気予報

過去48時間のMETAR

飛行場予報(TAF)
発表時間: 10/18 07:00 CEST (10/18 05:00 UTC)
予報対象時間: 18日8時 CEST ~ 19日8時 CEST
風向・風速南南東 3m/s
視程10km以上
全天の4割程度の雲 雲底高度 910m
18日9時 CEST ~ 18日12時 CEST に徐々に
風向・風速南 6m/s
18日13時 CEST ~ 18日19時 CEST に一時的に
風向・風速南西 8m/s 瞬間風速 13m/s
視程4000m
天気現象しゅう雨
全天の8割程度の積乱雲 雲底高度 610m
18日14時 CEST ~ 18日18時 CEST に 確率 40% で一時的に
風向・風速南西 8m/s 瞬間風速 18m/s
視程2000m
天気現象雷雨
全天の8割程度の積乱雲 雲底高度 400m
18日19時 CEST ~ 18日21時 CEST に徐々に
風向・風速南 4m/s
TAF EDDV 180500Z 1806/1906 16005KT 9999 SCT030
BECMG 1807/1810 19012KT
TEMPO 1811/1817 23015G25KT 4000 SHRA BKN020CB
PROB40 TEMPO 1812/1816 23015G35KT 2000 TSRA BKN013CB
BECMG 1817/1819 18007KT